Time;durP1;ratioP1;P1;durP2;ratioP2;P2;SDS_P1;SDS_P2;PMS_P1;PMS_P2;Temp;Humidity;BMP_temperature;BMP_pressure;BME280_temperature;BME280_humidity;BME280_pressure;Samples;Min_cycle;Max_cycle;Signal;HPM_P1;HPM_P2
2021/12/16 00:32:43;;;;;;;2.13;1.43;;;;;;;20.07;49.01;98237.31;10526527;28;20059;-54
2021/12/16 00:38:03;;;;;;;1.90;1.50;;;;;;;20.07;49.01;98240.00;10535317;28;20056;-54
2021/12/16 00:44:14;;;;;;;1.88;1.30;;;;;;;20.03;49.09;98237.13;10519515;28;20044;-54
2021/12/16 00:54:48;;;;;;;1.77;1.10;;;;;;;20.02;48.79;98237.41;10530157;28;20044;-54
2021/12/16 01:00:12;;;;;;;1.80;1.20;;;;;;;20.01;48.72;98243.88;10509286;28;20037;-54
2021/12/16 01:50:37;;;;;;;1.63;1.30;;;;;;;19.87;48.00;98225.66;10529174;28;20047;-54
2021/12/16 01:56:10;;;;;;;1.70;1.30;;;;;;;19.86;48.09;98224.06;10501059;28;20044;-54
2021/12/16 02:01:33;;;;;;;1.40;1.10;;;;;;;19.86;48.23;98221.38;10507024;28;20036;-54
2021/12/16 02:34:31;;;;;;;2.10;1.10;;;;;;;19.77;48.00;98209.59;10515212;28;20295;-54
2021/12/16 02:39:55;;;;;;;1.58;1.10;;;;;;;19.76;47.93;98213.41;10491704;28;20056;-54
2021/12/16 02:50:53;;;;;;;1.40;1.00;;;;;;;19.74;47.89;98216.41;10512046;28;20067;-54
2021/12/16 02:56:13;;;;;;;1.60;1.20;;;;;;;19.73;47.88;98220.19;10492938;28;20086;-54
2021/12/16 03:01:39;;;;;;;0.93;0.77;;;;;;;19.72;47.63;98215.88;10490521;28;20067;-54
2021/12/16 03:07:00;;;;;;;1.90;1.17;;;;;;;19.70;47.79;98215.34;10517175;28;20059;-53
2021/12/16 03:12:44;;;;;;;1.30;1.00;;;;;;;19.67;47.55;98221.31;10506068;28;20059;-54
2021/12/16 03:18:22;;;;;;;1.27;1.08;;;;;;;19.66;47.74;98227.84;10525192;28;20053;-55
2021/12/16 03:29:41;;;;;;;1.65;0.73;;;;;;;19.63;47.67;98224.91;10520026;28;20059;-54
2021/12/16 03:40:53;;;;;;;1.67;0.80;;;;;;;19.62;47.52;98229.50;10500554;28;20484;-55
2021/12/16 03:46:27;;;;;;;1.13;0.98;;;;;;;19.61;47.66;98229.78;10532204;28;20047;-54
2021/12/16 03:51:56;;;;;;;1.30;1.00;;;;;;;19.58;47.53;98233.06;10511888;28;20075;-54
2021/12/16 03:57:19;;;;;;;0.80;0.80;;;;;;;19.58;47.52;98228.44;10532942;28;20094;-54
2021/12/16 04:02:39;;;;;;;1.00;0.90;;;;;;;19.55;47.55;98226.34;10496368;28;20059;-54
2021/12/16 04:07:59;;;;;;;8.07;1.08;;;;;;;19.54;47.69;98236.34;10514972;28;20045;-54
2021/12/16 04:13:42;;;;;;;1.27;1.00;;;;;;;19.52;47.57;98241.25;10522507;28;20049;-54
2021/12/16 04:19:11;;;;;;;1.13;0.90;;;;;;;19.52;47.51;98229.63;10548196;28;20123;-54
2021/12/16 04:24:33;;;;;;;1.00;0.90;;;;;;;19.50;47.50;98238.03;10523143;28;20044;-54
2021/12/16 04:29:55;;;;;;;2.03;1.10;;;;;;;19.50;47.46;98237.22;10535604;28;20479;-54
2021/12/16 04:35:15;;;;;;;1.00;0.80;;;;;;;19.49;47.52;98235.63;10527198;28;20056;-54
2021/12/16 04:40:39;;;;;;;1.02;0.77;;;;;;;19.49;47.45;98249.94;10513609;28;20058;-54
2021/12/16 04:46:00;;;;;;;1.33;0.90;;;;;;;19.46;47.43;98247.78;10534069;28;20048;-54
2021/12/16 04:51:24;;;;;;;1.30;0.70;;;;;;;19.45;47.35;98246.19;10541499;28;20513;-54
2021/12/16 04:56:45;;;;;;;0.95;0.82;;;;;;;19.44;47.41;98247.28;10513849;28;20059;-53
2021/12/16 05:02:10;;;;;;;0.77;0.70;;;;;;;19.43;47.26;98250.28;10519246;28;20105;-54
2021/12/16 05:08:05;;;;;;;1.27;0.85;;;;;;;19.41;47.46;98253.28;10502031;28;20047;-54
2021/12/16 05:13:45;;;;;;;0.90;0.90;;;;;;;19.41;47.94;98258.66;10496609;28;20475;-53
2021/12/16 05:19:07;;;;;;;1.02;0.82;;;;;;;19.43;48.03;98258.41;10523110;28;20055;-54
2021/12/16 05:24:28;;;;;;;0.98;0.90;;;;;;;19.42;48.24;98262.97;10508361;28;20052;-53
2021/12/16 05:29:56;;;;;;;3.03;0.90;;;;;;;19.43;48.65;98261.88;10494198;28;20056;-54
2021/12/16 05:35:18;;;;;;;0.65;0.65;;;;;;;19.45;48.51;98267.81;10511168;28;20044;-53
2021/12/16 05:40:38;;;;;;;1.58;0.90;;;;;;;19.44;48.36;98274.28;10503729;28;20063;-53
2021/12/16 05:46:08;;;;;;;2.38;0.90;;;;;;;19.45;48.34;98277.81;10502767;28;20106;-53
2021/12/16 05:51:34;;;;;;;2.30;1.13;;;;;;;19.47;48.17;98281.84;10491386;28;20670;-53
2021/12/16 05:56:54;;;;;;;3.75;1.40;;;;;;;19.49;48.30;98279.66;10492228;28;20052;-54
2021/12/16 06:02:14;;;;;;;4.55;1.58;;;;;;;19.52;48.23;98289.06;10506436;28;20615;-53
2021/12/16 06:07:34;;;;;;;3.53;1.80;;;;;;;19.55;48.17;98292.00;10501457;28;20047;-51
2021/12/16 06:12:54;;;;;;;4.22;1.70;;;;;;;19.57;48.10;98289.03;10506734;28;20040;-54
2021/12/16 06:29:43;;;;;;;4.35;1.88;;;;;;;19.66;48.04;98289.19;10505008;28;20063;-54
2021/12/16 06:35:04;;;;;;;4.80;1.83;;;;;;;19.71;48.01;98295.38;10520932;28;20044;-54
2021/12/16 06:40:24;;;;;;;4.35;1.60;;;;;;;19.74;48.03;98292.09;10506769;28;20491;-53
2021/12/16 06:46:04;;;;;;;6.68;1.70;;;;;;;19.78;47.90;98308.56;10520049;28;20185;-54
2021/12/16 06:51:36;;;;;;;4.43;1.60;;;;;;;19.82;47.99;98303.38;10502034;28;20075;-54
2021/12/16 07:07:51;;;;;;;3.90;1.83;;;;;;;19.89;47.60;98314.63;10504226;28;20424;-53
2021/12/16 07:13:19;;;;;;;3.58;1.60;;;;;;;19.91;47.57;98323.28;10519814;28;20052;-51
2021/12/16 07:18:38;;;;;;;3.65;1.60;;;;;;;19.92;47.72;98324.91;10506302;28;20039;-52
2021/12/16 07:23:58;;;;;;;3.58;1.60;;;;;;;19.93;47.73;98331.91;10520301;28;20123;-53
2021/12/16 07:29:17;;;;;;;5.20;1.52;;;;;;;19.93;47.59;98332.72;10524568;28;20092;-53
2021/12/16 07:34:37;;;;;;;3.28;1.50;;;;;;;19.94;47.45;98334.31;10502326;28;20040;-53
2021/12/16 07:39:57;;;;;;;4.20;1.80;;;;;;;19.95;47.53;98329.72;10530526;28;20048;-52
2021/12/16 07:45:17;;;;;;;2.75;1.50;;;;;;;19.97;47.70;98332.13;10550549;28;20036;-53
2021/12/16 07:50:37;;;;;;;3.30;1.38;;;;;;;19.98;47.51;98322.94;10548095;28;20050;-54
2021/12/16 07:55:57;;;;;;;2.17;1.40;;;;;;;19.97;47.50;98338.34;10537517;28;20060;-54
2021/12/16 08:01:17;;;;;;;3.28;1.35;;;;;;;19.98;47.45;98337.25;10557209;28;20052;-54
2021/12/16 08:06:36;;;;;;;3.13;1.60;;;;;;;19.98;47.46;98345.38;10531068;28;20479;-53
2021/12/16 08:11:56;;;;;;;3.25;1.70;;;;;;;20.01;47.49;98349.38;10506215;28;20056;-54
2021/12/16 08:17:16;;;;;;;2.00;1.40;;;;;;;20.03;47.47;98353.44;10500217;28;20039;-53
2021/12/16 08:22:36;;;;;;;2.05;1.40;;;;;;;20.07;47.39;98361.75;10517550;28;20044;-54
2021/12/16 08:27:57;;;;;;;2.50;1.40;;;;;;;20.08;47.38;98360.66;10492793;28;20057;-54
2021/12/16 08:33:18;;;;;;;2.17;1.50;;;;;;;20.08;47.25;98369.59;10492545;28;20049;-54
2021/12/16 08:38:38;;;;;;;2.33;1.60;;;;;;;20.07;47.13;98364.47;10491588;28;20047;-54
2021/12/16 08:43:58;;;;;;;3.50;1.55;;;;;;;20.05;47.10;98355.81;10491495;28;20049;-54
2021/12/16 08:49:18;;;;;;;2.38;1.40;;;;;;;20.03;47.16;98364.25;10507042;28;20067;-53
2021/12/16 08:54:38;;;;;;;2.35;1.63;;;;;;;20.02;47.15;98378.06;10494114;28;20074;-54
2021/12/16 08:59:58;;;;;;;3.50;1.52;;;;;;;19.99;47.18;98376.72;10533188;28;20115;-54
2021/12/16 09:05:20;;;;;;;3.42;1.40;;;;;;;19.99;47.30;98373.22;10534455;28;20056;-54
2021/12/16 09:10:39;;;;;;;2.95;1.70;;;;;;;19.98;47.11;98377.03;10534755;28;20075;-53
2021/12/16 09:16:04;;;;;;;2.72;1.58;;;;;;;19.97;47.12;98381.63;10535519;28;20047;-54
2021/12/16 09:21:27;;;;;;;2.85;1.40;;;;;;;19.97;47.18;98387.03;10535063;28;20485;-54
2021/12/16 09:26:47;;;;;;;2.33;1.40;;;;;;;19.97;47.28;98386.22;10533914;28;20048;-54
2021/12/16 09:32:07;;;;;;;2.28;1.23;;;;;;;19.94;47.16;98380.31;10534141;28;20059;-54
2021/12/16 09:37:28;;;;;;;1.55;1.30;;;;;;;19.95;47.26;98372.97;10547891;28;20689;-53
2021/12/16 09:42:50;;;;;;;2.22;1.30;;;;;;;19.93;47.17;98381.41;10547590;28;20067;-54
2021/12/16 09:48:10;;;;;;;2.25;1.50;;;;;;;19.92;47.17;98379.78;10532893;28;20684;-54
2021/12/16 09:53:30;;;;;;;1.63;1.50;;;;;;;19.93;47.28;98375.16;10531016;28;20052;-54
2021/12/16 09:58:53;;;;;;;1.55;1.20;;;;;;;19.92;47.05;98377.06;10530663;28;20070;-54
2021/12/16 10:04:19;;;;;;;4.65;4.07;;;;;;;19.88;45.00;98367.13;10541926;28;20040;-54
2021/12/16 10:09:40;;;;;;;2.60;1.80;;;;;;;19.81;45.07;98372.88;10512333;28;20048;-55
2021/12/16 10:15:06;;;;;;;3.97;2.60;;;;;;;19.81;45.89;98358.56;10502052;28;20503;-55
2021/12/16 10:20:30;;;;;;;2.88;1.67;;;;;;;19.82;46.07;98368.28;10520320;28;20060;-54
2021/12/16 10:25:58;;;;;;;4.55;1.92;;;;;;;19.82;46.46;98369.09;10530031;28;20511;-54
2021/12/16 10:31:20;;;;;;;;;;;;;;;19.83;46.37;98359.88;10510179;28;20484;-54
2021/12/16 10:36:47;;;;;;;2.40;1.73;;;;;;;19.82;46.53;98355.56;10495813;28;19927;-54
2021/12/16 10:42:07;;;;;;;1.70;1.45;;;;;;;19.82;46.42;98352.88;10523410;28;20043;-54
2021/12/16 10:47:28;;;;;;;3.38;1.50;;;;;;;19.79;45.71;98347.22;10523132;28;20628;-54
2021/12/16 10:52:47;;;;;;;2.33;1.67;;;;;;;19.79;46.00;98339.09;10521877;28;20101;-54
2021/12/16 10:58:07;;;;;;;1.50;1.38;;;;;;;19.76;46.02;98351.31;10535006;28;20055;-54
2021/12/16 11:03:43;;;;;;;2.13;1.67;;;;;;;19.77;45.97;98344.00;10536793;28;20484;-54
2021/12/16 11:09:43;;;;;;;2.00;1.60;;;;;;;19.76;45.92;98351.31;10530499;28;20109;-54
2021/12/16 11:15:21;;;;;;;1.60;1.48;;;;;;;19.74;45.96;98346.19;10359240;28;20057;-54
2021/12/16 11:21:18;;;;;;;2.33;1.50;;;;;;;19.73;46.04;98343.75;10483844;28;20526;-54
2021/12/16 11:26:40;;;;;;;1.63;1.40;;;;;;;19.72;46.01;98350.28;10386326;28;20057;-53
2021/12/16 11:31:59;;;;;;;2.67;1.33;;;;;;;19.71;46.04;98362.13;10505673;28;20052;-54
2021/12/16 11:37:23;;;;;;;1.95;1.30;;;;;;;19.71;46.01;98354.03;10539696;28;20059;-53
2021/12/16 11:42:42;;;;;;;2.60;1.38;;;;;;;19.69;46.05;98353.50;10512787;28;20056;-54
2021/12/16 11:48:03;;;;;;;1.73;1.38;;;;;;;19.69;46.14;98348.09;10512996;28;20049;-54
2021/12/16 11:53:38;;;;;;;1.70;1.20;;;;;;;19.68;46.07;98343.78;10527589;28;20078;-53
2021/12/16 11:58:58;;;;;;;1.92;1.40;;;;;;;19.68;46.32;98341.91;10518176;28;20044;-54
2021/12/16 12:04:25;;;;;;;1.50;1.25;;;;;;;19.67;46.26;98342.19;10508394;28;20102;-54
2021/12/16 12:09:50;;;;;;;3.25;1.25;;;;;;;19.65;46.33;98347.88;10524873;28;20043;-54
2021/12/16 12:15:12;;;;;;;1.50;1.38;;;;;;;19.65;46.34;98358.69;10539612;28;20036;-54
2021/12/16 12:20:33;;;;;;;1.40;1.30;;;;;;;19.63;46.32;98355.47;10511346;28;20399;-54
2021/12/16 12:25:52;;;;;;;1.25;1.10;;;;;;;19.62;46.27;98353.88;10519838;28;20061;-54
2021/12/16 12:31:14;;;;;;;2.20;1.40;;;;;;;19.61;46.29;98332.53;10529348;28;20074;-54
2021/12/16 12:36:34;;;;;;;1.70;1.30;;;;;;;19.59;46.24;98332.81;10522729;28;20098;-53
2021/12/16 12:41:54;;;;;;;1.65;1.45;;;;;;;19.59;46.18;98343.63;10545603;28;20035;-54
2021/12/16 12:47:22;;;;;;;1.40;1.30;;;;;;;19.59;46.20;98334.72;10542767;28;20052;-54
2021/12/16 12:52:44;;;;;;;1.63;1.30;;;;;;;19.58;46.30;98327.69;10546746;28;20046;-54
2021/12/16 12:58:14;;;;;;;1.50;1.38;;;;;;;19.55;46.32;98321.75;10530110;28;20077;-54
2021/12/16 13:03:37;;;;;;;1.30;1.10;;;;;;;19.55;46.25;98331.78;10524078;28;20667;-54
2021/12/16 13:08:59;;;;;;;1.63;1.30;;;;;;;19.53;46.10;98337.44;10546492;28;20395;-54
2021/12/16 13:14:25;;;;;;;1.63;1.30;;;;;;;19.53;46.40;98344.75;10531531;28;20047;-54
2021/12/16 13:31:50;;;;;;;1.48;1.30;;;;;;;19.48;46.38;98359.16;10522016;28;20053;-54
2021/12/16 13:37:20;;;;;;;2.00;1.30;;;;;;;19.47;46.32;98376.44;10495703;28;20093;-54
2021/12/16 13:42:57;;;;;;;1.60;1.35;;;;;;;19.46;46.27;98382.13;10516694;28;20280;-54
2021/12/16 14:06:10;;;;;;;1.30;1.20;;;;;;;19.41;46.44;98374.88;10543312;28;20429;-54
2021/12/16 14:17:45;;;;;;;1.48;1.23;;;;;;;19.39;46.54;98389.78;10543867;28;20040;-53
2021/12/16 14:51:01;;;;;;;2.03;1.35;;;;;;;19.42;46.58;98403.50;10507563;28;20079;-54
2021/12/16 14:56:24;;;;;;;1.30;1.20;;;;;;;19.46;46.58;98411.84;10503455;28;20047;-54
2021/12/16 15:01:48;;;;;;;1.35;1.25;;;;;;;19.46;46.56;98412.66;10497063;28;20054;-54
2021/12/16 15:07:10;;;;;;;1.52;1.15;;;;;;;19.50;46.46;98421.84;10494131;28;20050;-54
2021/12/16 15:12:46;;;;;;;1.30;1.20;;;;;;;19.52;46.36;98408.00;10506410;28;20167;-52
2021/12/16 15:40:32;;;;;;;3.55;1.67;;;;;;;19.66;46.55;98451.41;10510494;28;20660;-54
2021/12/16 15:45:52;;;;;;;3.35;1.60;;;;;;;19.69;46.65;98453.56;10529844;28;20032;-54
2021/12/16 15:51:12;;;;;;;1.50;1.40;;;;;;;19.69;46.84;98465.16;10512344;28;20104;-55
2021/12/16 15:56:37;;;;;;;7.43;1.77;;;;;;;19.73;46.86;98462.75;10516301;28;20037;-55
2021/12/16 16:01:58;;;;;;;3.00;1.70;;;;;;;19.73;46.98;98468.16;10525877;28;20043;-54
2021/12/16 16:07:18;;;;;;;4.65;1.48;;;;;;;19.77;47.00;98463.78;10507950;28;20735;-55
2021/12/16 16:12:38;;;;;;;4.03;1.90;;;;;;;19.82;47.04;98465.66;10523090;28;20032;-55
2021/12/16 16:18:13;;;;;;;3.83;1.77;;;;;;;19.84;47.25;98460.75;10509740;28;20053;-53
2021/12/16 16:23:36;;;;;;;4.43;1.50;;;;;;;19.86;47.11;98477.50;10539708;28;20112;-53
2021/12/16 16:29:00;;;;;;;3.22;1.70;;;;;;;19.88;47.59;98468.00;10524988;28;20582;-54
2021/12/16 16:34:27;;;;;;;7.57;2.10;;;;;;;19.92;47.40;98469.03;10549314;28;20051;-53
2021/12/16 16:39:54;;;;;;;3.92;1.75;;;;;;;19.97;47.80;98461.97;10517794;28;20053;-54
2021/12/16 16:45:23;;;;;;;5.75;1.90;;;;;;;20.02;47.76;98464.63;10507839;28;20049;-53
2021/12/16 16:50:43;;;;;;;5.00;1.65;;;;;;;20.03;47.54;98471.63;10534150;28;20083;-55
2021/12/16 16:56:03;;;;;;;4.50;1.75;;;;;;;20.07;47.91;98480.78;10545309;28;20052;-51
2021/12/16 17:01:24;;;;;;;4.20;2.08;;;;;;;20.10;47.75;98477.53;10505380;28;20423;-54
2021/12/16 17:06:51;;;;;;;2.58;1.80;;;;;;;20.14;47.75;98481.28;10521065;28;20639;-53
2021/12/16 17:12:12;;;;;;;3.72;1.55;;;;;;;20.18;47.83;98474.19;10535796;28;20043;-54
2021/12/16 17:17:32;;;;;;;2.60;1.70;;;;;;;20.21;47.86;98478.22;10524387;28;20516;-53
2021/12/16 17:22:52;;;;;;;4.57;1.65;;;;;;;20.25;48.18;98488.19;10515678;28;20083;-54
2021/12/16 17:28:13;;;;;;;2.60;1.70;;;;;;;20.30;47.74;98471.88;10517719;28;20063;-55
2021/12/16 17:33:34;;;;;;;36.47;10.60;;;;;;;20.34;48.83;98483.72;10520983;28;20044;-54
2021/12/16 17:38:54;;;;;;;28.58;9.45;;;;;;;20.38;49.38;98489.38;10514623;28;20043;-54
2021/12/16 17:44:14;;;;;;;39.88;13.50;;;;;;;20.42;49.81;98490.41;10513107;28;20052;-53
2021/12/16 17:49:34;;;;;;;33.05;10.60;;;;;;;20.48;47.61;98477.63;10543974;28;20040;-50
2021/12/16 17:54:57;;;;;;;59.38;16.30;;;;;;;20.53;46.50;98483.00;10521652;28;20407;-51
2021/12/16 18:00:25;;;;;;;68.93;20.17;;;;;;;20.57;45.67;98492.16;10525863;28;20052;-52
2021/12/16 18:05:49;;;;;;;58.70;17.75;;;;;;;20.60;45.08;98502.44;10551008;28;20048;-54
2021/12/16 18:11:12;;;;;;;8.43;5.63;;;;;;;19.59;37.61;98511.22;10521976;28;20105;-53
2021/12/16 18:16:49;;;;;;;15.32;6.40;;;;;;;19.69;41.77;98518.44;10514228;28;20155;-54
2021/12/16 18:22:15;;;;;;;7.63;4.30;;;;;;;19.97;41.04;98518.78;10531237;28;20078;-54
2021/12/16 18:27:56;;;;;;;9.75;4.57;;;;;;;20.15;42.42;98540.50;10528666;28;20511;-54
2021/12/16 18:33:28;;;;;;;8.68;4.20;;;;;;;20.27;42.91;98540.13;10494892;28;20056;-53
2021/12/16 18:38:53;;;;;;;8.70;3.97;;;;;;;20.35;43.43;98560.34;10521942;28;20097;-53
2021/12/16 18:44:31;;;;;;;8.65;3.95;;;;;;;20.40;43.93;98562.19;10531240;28;20409;-54
2021/12/16 18:49:56;;;;;;;8.90;3.42;;;;;;;20.42;44.37;98555.38;10504457;28;20036;-54
2021/12/16 18:55:17;;;;;;;8.43;3.35;;;;;;;20.44;44.81;98557.81;10495814;28;20423;-53
2021/12/16 19:00:45;;;;;;;9.60;3.42;;;;;;;20.46;45.05;98569.94;10496811;28;20048;-53
2021/12/16 19:06:05;;;;;;;6.82;3.08;;;;;;;20.48;45.75;98559.69;10511627;28;20101;-55
2021/12/16 19:11:27;;;;;;;6.03;3.08;;;;;;;20.52;46.34;98551.75;10528190;28;20402;-55
2021/12/16 19:16:47;;;;;;;6.72;2.88;;;;;;;20.53;46.85;98554.19;10524891;28;20040;-55
2021/12/16 19:22:11;;;;;;;7.07;3.22;;;;;;;20.56;47.09;98569.03;10515180;28;20500;-55
2021/12/16 19:27:31;;;;;;;6.68;3.03;;;;;;;20.58;47.59;98574.16;10530181;28;20435;-54
2021/12/16 19:32:50;;;;;;;6.43;2.88;;;;;;;20.60;47.90;98585.56;10531402;28;20475;-52
2021/12/16 19:38:12;;;;;;;4.75;2.53;;;;;;;20.63;46.07;98585.78;10531556;28;20044;-50
2021/12/16 19:43:32;;;;;;;6.95;3.10;;;;;;;20.70;44.74;98593.59;10526559;28;20032;-52
2021/12/16 19:48:53;;;;;;;5.82;2.70;;;;;;;20.73;45.36;98599.22;10495317;28;20416;-51
2021/12/16 19:54:14;;;;;;;6.35;2.60;;;;;;;20.69;44.15;98594.66;10491955;28;20060;-53
2021/12/16 19:59:34;;;;;;;6.88;3.10;;;;;;;20.69;45.42;98597.38;10529460;28;20045;-52
2021/12/16 20:04:53;;;;;;;5.50;2.95;;;;;;;20.68;45.87;98599.28;10502713;28;20048;-53
2021/12/16 20:10:16;;;;;;;7.20;2.90;;;;;;;20.67;46.12;98599.56;10535809;28;20417;-53
2021/12/16 20:15:42;;;;;;;8.32;2.65;;;;;;;20.68;46.44;98596.56;10548104;28;20048;-53
2021/12/16 20:21:10;;;;;;;7.75;2.50;;;;;;;20.69;46.85;98608.22;10508478;28;20040;-53
2021/12/16 20:26:34;;;;;;;8.85;2.72;;;;;;;20.68;47.43;98612.81;10503654;28;20059;-54
2021/12/16 20:31:59;;;;;;;11.02;3.40;;;;;;;20.68;47.85;98610.13;10501377;28;20059;-54
2021/12/16 20:37:20;;;;;;;13.77;2.90;;;;;;;20.70;48.29;98610.63;10507529;28;20058;-53
2021/12/16 20:42:43;;;;;;;9.60;3.00;;;;;;;20.68;48.75;98607.41;10525939;28;20049;-59
2021/12/16 20:48:03;;;;;;;7.88;3.03;;;;;;;20.72;48.95;98613.06;10537583;28;20051;-56
2021/12/16 20:53:25;;;;;;;8.98;2.97;;;;;;;20.72;48.95;98632.81;10524422;28;20670;-57
2021/12/16 20:58:55;;;;;;;7.80;3.40;;;;;;;20.74;49.31;98648.78;10510571;28;20063;-55
2021/12/16 21:04:15;;;;;;;7.03;3.33;;;;;;;20.73;49.19;98647.97;10502004;28;20051;-57
2021/12/16 21:09:34;;;;;;;11.55;3.47;;;;;;;20.73;49.20;98645.25;10532837;28;20037;-55
2021/12/16 21:14:54;;;;;;;8.70;3.33;;;;;;;20.73;49.44;98637.13;10509803;28;20056;-56
2021/12/16 21:20:15;;;;;;;10.07;3.22;;;;;;;20.73;49.56;98645.25;10517192;28;20055;-57
2021/12/16 21:25:35;;;;;;;8.93;3.38;;;;;;;20.73;49.28;98637.13;10513506;28;20044;-55
2021/12/16 21:30:57;;;;;;;10.90;3.55;;;;;;;20.71;49.74;98627.69;10523185;28;20401;-51
2021/12/16 21:36:18;;;;;;;9.82;3.85;;;;;;;20.70;49.57;98618.75;10520364;28;20048;-53
2021/12/16 21:41:39;;;;;;;7.53;3.65;;;;;;;20.69;49.78;98629.88;10542752;28;20499;-51
2021/12/16 21:46:59;;;;;;;8.00;3.50;;;;;;;20.69;49.71;98649.63;10535507;28;20094;-53
2021/12/16 21:52:19;;;;;;;8.63;4.20;;;;;;;20.68;49.91;98650.75;10532717;28;20040;-54
2021/12/16 21:57:39;;;;;;;9.25;4.00;;;;;;;20.67;49.98;98645.59;10516934;28;20089;-53
2021/12/16 22:03:01;;;;;;;7.85;3.58;;;;;;;20.67;50.11;98646.41;10509758;28;20083;-53
2021/12/16 22:08:21;;;;;;;7.38;3.30;;;;;;;20.66;50.34;98642.09;10524235;28;20583;-53
2021/12/16 22:13:42;;;;;;;5.55;2.65;;;;;;;20.63;50.24;98637.25;10494151;28;20040;-52
2021/12/16 22:19:06;;;;;;;5.95;3.40;;;;;;;20.63;50.37;98642.66;10503538;28;20036;-51
2021/12/16 22:24:26;;;;;;;6.30;3.25;;;;;;;20.62;50.35;98643.75;10522444;28;20052;-52
2021/12/16 22:29:46;;;;;;;5.80;2.95;;;;;;;20.61;50.43;98642.13;10494074;28;20048;-53
2021/12/16 22:35:08;;;;;;;6.60;3.38;;;;;;;20.60;50.21;98643.25;10520910;28;20058;-53
2021/12/16 22:40:34;;;;;;;7.15;3.78;;;;;;;20.60;50.23;98642.41;10523237;28;20059;-53
2021/12/16 22:45:55;;;;;;;7.63;3.28;;;;;;;20.57;50.17;98632.94;10498511;28;20051;-53
2021/12/16 22:51:15;;;;;;;5.40;3.20;;;;;;;20.59;50.26;98646.19;10505085;28;20052;-53
2021/12/16 22:56:37;;;;;;;6.18;3.20;;;;;;;20.56;50.26;98647.56;10521379;28;20693;-52
2021/12/16 23:01:58;;;;;;;5.63;2.92;;;;;;;20.55;50.22;98637.84;10489086;28;20048;-52
2021/12/16 23:07:17;;;;;;;5.57;3.13;;;;;;;20.53;50.36;98643.53;10505040;28;20055;-52
2021/12/16 23:12:40;;;;;;;6.97;2.92;;;;;;;20.51;50.30;98624.06;10491068;28;20589;-53
2021/12/16 23:23:32;;;;;;;5.38;3.00;;;;;;;20.49;50.24;98611.91;10499467;28;20048;-53
2021/12/16 23:28:53;;;;;;;5.35;2.63;;;;;;;20.48;50.20;98613.00;10506457;28;20667;-54
2021/12/16 23:34:12;;;;;;;5.63;2.70;;;;;;;20.47;50.39;98605.97;10501772;28;20048;-53
2021/12/16 23:39:34;;;;;;;4.38;2.45;;;;;;;20.45;50.41;98608.97;10507611;28;20059;-53
2021/12/16 23:45:50;;;;;;;6.93;2.70;;;;;;;20.44;50.35;98606.53;10530782;28;20628;-54
2021/12/16 23:56:14;;;;;;;5.43;2.83;;;;;;;20.42;49.95;98603.31;10516192;28;20048;-53
